createdAt,value
2022-11-02T00:00:18.141Z,11.90
2022-11-02T00:01:25.463Z,11.91
2022-11-02T00:02:28.848Z,11.91
2022-11-02T00:03:33.113Z,11.91
2022-11-02T00:04:39.141Z,11.87
2022-11-02T00:05:41.830Z,11.90
2022-11-02T00:06:45.794Z,11.90
2022-11-02T00:07:50.990Z,11.89
2022-11-02T00:08:54.225Z,11.89
2022-11-02T00:09:58.230Z,11.89
2022-11-02T00:11:02.305Z,11.88
2022-11-02T00:12:08.296Z,11.88
2022-11-02T00:13:13.893Z,11.88
2022-11-02T00:14:17.022Z,11.87
2022-11-02T00:15:21.478Z,11.86
2022-11-02T00:16:26.209Z,11.86
2022-11-02T00:17:29.998Z,11.86
2022-11-02T00:18:35.834Z,11.86
2022-11-02T00:19:39.483Z,11.87
2022-11-02T00:20:43.409Z,11.86
2022-11-02T00:21:46.893Z,11.86
2022-11-02T00:22:53.563Z,11.85
2022-11-02T00:23:59.674Z,11.85
2022-11-02T00:25:04.361Z,11.85
2022-11-02T00:26:08.796Z,11.84
2022-11-02T00:27:11.546Z,11.83
2022-11-02T00:28:15.473Z,11.83
2022-11-02T00:29:18.316Z,11.82
2022-11-02T00:30:22.655Z,11.83
2022-11-02T00:31:26.189Z,11.82
2022-11-02T00:32:30.968Z,11.82
2022-11-02T00:33:34.393Z,11.82
2022-11-02T00:34:38.188Z,11.81
2022-11-02T00:35:42.460Z,11.79
2022-11-02T00:36:50.590Z,11.80
2022-11-02T00:37:55.578Z,11.80
2022-11-02T00:38:59.712Z,11.78
2022-11-02T00:40:02.259Z,11.79
2022-11-02T00:41:05.562Z,11.77
2022-11-02T00:42:07.764Z,11.78
2022-11-02T00:43:11.414Z,11.78
2022-11-02T00:44:13.887Z,11.78
2022-11-02T00:45:18.269Z,11.79
2022-11-02T00:46:22.479Z,11.79
2022-11-02T00:47:29.086Z,11.80
2022-11-02T00:48:32.062Z,11.80
2022-11-02T00:49:36.408Z,11.78
2022-11-02T00:50:40.247Z,11.80
2022-11-02T00:51:44.512Z,11.79
2022-11-02T00:52:51.276Z,11.76
2022-11-02T00:53:54.713Z,11.80
2022-11-02T00:54:57.962Z,11.78
2022-11-02T00:56:00.259Z,11.80
2022-11-02T00:57:04.040Z,11.79
2022-11-02T00:58:06.727Z,11.80
2022-11-02T00:59:10.123Z,11.78
2022-11-02T01:00:15.312Z,11.78
2022-11-02T01:01:18.282Z,11.78
2022-11-02T01:02:23.313Z,11.79
2022-11-02T01:03:27.595Z,11.79
2022-11-02T01:04:33.262Z,11.78
2022-11-02T01:05:37.953Z,11.76
2022-11-02T01:06:44.276Z,11.77
2022-11-02T01:07:49.383Z,11.79
2022-11-02T01:08:55.574Z,11.79
2022-11-02T01:10:00.325Z,11.79
2022-11-02T01:11:12.869Z,11.80
2022-11-02T01:12:17.380Z,11.79
2022-11-02T01:13:21.270Z,11.80
2022-11-02T01:14:24.089Z,11.80
2022-11-02T01:15:28.338Z,11.79
2022-11-02T01:16:32.343Z,11.79
2022-11-02T01:17:38.696Z,11.79
2022-11-02T01:18:42.601Z,11.79
2022-11-02T01:19:46.322Z,11.77
2022-11-02T01:20:55.799Z,11.78
2022-11-02T01:21:59.465Z,11.77
2022-11-02T01:23:02.136Z,11.77
2022-11-02T01:24:07.007Z,11.75
2022-11-02T01:25:10.342Z,11.75
2022-11-02T01:26:16.022Z,11.73
2022-11-02T01:27:18.408Z,11.72
2022-11-02T01:28:22.031Z,11.72
2022-11-02T01:29:27.357Z,11.71
2022-11-02T01:30:32.890Z,11.66
2022-11-02T01:31:37.273Z,11.67
2022-11-02T01:32:42.581Z,11.66
2022-11-02T01:33:46.266Z,11.65
2022-11-02T01:34:49.573Z,11.65
2022-11-02T01:35:53.140Z,11.65
2022-11-02T01:36:56.445Z,11.64
2022-11-02T01:37:59.096Z,11.63
2022-11-02T01:39:03.754Z,11.63
2022-11-02T01:40:07.717Z,11.62
2022-11-02T01:41:12.684Z,11.63
2022-11-02T01:42:19.512Z,11.63
2022-11-02T01:43:24.144Z,11.64
2022-11-02T01:44:29.533Z,11.65
2022-11-02T01:45:34.059Z,11.65
2022-11-02T01:46:43.209Z,11.64
2022-11-02T01:47:49.755Z,11.64
2022-11-02T01:48:58.550Z,11.63
2022-11-02T01:50:07.899Z,11.63
2022-11-02T01:51:22.126Z,11.61
2022-11-02T01:52:30.698Z,11.62
2022-11-02T01:53:36.175Z,11.61
2022-11-02T01:54:46.341Z,11.60
2022-11-02T01:55:51.270Z,11.61
2022-11-02T01:57:00.394Z,11.57
2022-11-02T01:58:08.101Z,11.63
2022-11-02T01:59:19.093Z,11.65
2022-11-02T02:00:23.254Z,11.67
2022-11-02T02:01:27.799Z,11.68
2022-11-02T02:02:36.285Z,11.70
2022-11-02T02:03:44.452Z,11.71
2022-11-02T02:04:51.996Z,11.72
2022-11-02T02:05:59.845Z,11.73
2022-11-02T02:07:04.637Z,11.75
2022-11-02T02:08:08.996Z,11.77
2022-11-02T02:09:12.028Z,11.78
2022-11-02T02:10:15.599Z,11.80
2022-11-02T02:11:26.873Z,11.64
2022-11-02T02:12:31.767Z,11.81
2022-11-02T02:13:34.135Z,11.83
2022-11-02T02:14:37.314Z,11.84
2022-11-02T02:15:46.036Z,11.85
2022-11-02T02:17:02.931Z,11.87
2022-11-02T02:18:12.304Z,11.89
2022-11-02T02:19:29.102Z,11.90
2022-11-02T02:20:51.570Z,11.92
2022-11-02T02:22:08.579Z,11.95
2022-11-02T02:23:39.475Z,11.97
2022-11-02T02:24:51.760Z,11.99
2022-11-02T02:26:24.950Z,12.01
2022-11-02T02:27:33.999Z,12.03
2022-11-02T02:28:44.189Z,12.04
2022-11-02T02:30:09.677Z,12.06
2022-11-02T02:31:17.827Z,12.07
2022-11-02T02:32:26.502Z,12.07
2022-11-02T02:33:33.062Z,12.08
2022-11-02T02:34:42.604Z,12.11
2022-11-02T02:35:50.508Z,12.11
2022-11-02T02:36:58.007Z,12.12
2022-11-02T02:38:03.270Z,12.12
2022-11-02T02:39:13.057Z,12.14
2022-11-02T02:40:22.605Z,12.16
2022-11-02T02:41:30.311Z,12.16
2022-11-02T02:42:37.323Z,12.16
2022-11-02T02:43:44.281Z,12.17
2022-11-02T02:44:55.356Z,12.16
2022-11-02T02:46:03.235Z,12.17
2022-11-02T02:47:11.834Z,12.15
2022-11-02T02:48:19.398Z,12.14
2022-11-02T02:49:28.440Z,12.12
2022-11-02T02:50:36.905Z,12.09
2022-11-02T02:51:41.888Z,12.09
2022-11-02T02:52:47.936Z,12.07
2022-11-02T02:53:59.173Z,12.04
2022-11-02T02:55:04.863Z,12.01
2022-11-02T02:56:10.059Z,11.98
2022-11-02T02:57:16.687Z,11.98
2022-11-02T02:58:24.914Z,11.97
2022-11-02T02:59:32.389Z,11.95
2022-11-02T03:00:37.660Z,11.95
2022-11-02T03:01:40.739Z,11.94
2022-11-02T03:03:00.685Z,11.93
2022-11-02T03:04:02.768Z,11.93
2022-11-02T03:05:24.309Z,11.92
2022-11-02T03:06:30.489Z,11.93
2022-11-02T03:07:36.959Z,11.92
2022-11-02T03:08:49.406Z,11.92
2022-11-02T03:10:07.628Z,11.93
2022-11-02T03:11:14.019Z,11.93
2022-11-02T03:12:29.010Z,11.92
2022-11-02T03:13:44.035Z,11.94
2022-11-02T03:15:02.198Z,11.94
2022-11-02T03:16:12.095Z,11.95
2022-11-02T03:17:19.894Z,11.96
2022-11-02T03:18:31.363Z,11.96
2022-11-02T03:19:44.370Z,11.97
2022-11-02T03:20:59.225Z,11.98
2022-11-02T03:22:09.135Z,11.99
2022-11-02T03:23:19.073Z,11.99
2022-11-02T03:24:30.449Z,12.01
2022-11-02T03:25:45.482Z,11.96
2022-11-02T03:26:53.704Z,12.02
2022-11-02T03:28:02.811Z,12.04
2022-11-02T03:29:10.073Z,12.05
2022-11-02T03:30:18.552Z,12.06
2022-11-02T03:31:30.708Z,12.07
2022-11-02T03:32:39.624Z,12.05
2022-11-02T03:33:52.180Z,12.07
2022-11-02T03:34:57.217Z,12.09
2022-11-02T03:36:07.991Z,12.08
2022-11-02T03:37:14.430Z,12.10
2022-11-02T03:38:23.911Z,12.10
2022-11-02T03:39:35.586Z,12.12
2022-11-02T03:40:42.620Z,12.11
2022-11-02T03:41:47.438Z,12.13
2022-11-02T03:42:53.245Z,12.14
2022-11-02T03:44:02.195Z,12.15
2022-11-02T03:45:11.333Z,12.15
2022-11-02T03:46:17.774Z,12.16
2022-11-02T03:47:21.569Z,12.16
2022-11-02T03:48:27.755Z,12.12
2022-11-02T03:49:32.002Z,12.11
2022-11-02T03:50:38.070Z,12.18
2022-11-02T03:51:43.990Z,12.14
2022-11-02T03:52:49.752Z,12.20
2022-11-02T03:53:56.801Z,12.20
2022-11-02T03:55:06.432Z,12.20
2022-11-02T03:56:14.633Z,12.19
2022-11-02T03:57:20.984Z,12.20
2022-11-02T03:58:22.932Z,12.22
2022-11-02T03:59:25.903Z,12.21
2022-11-02T04:00:32.636Z,12.20
2022-11-02T04:01:44.519Z,12.21
2022-11-02T04:02:49.398Z,12.18
2022-11-02T04:03:53.469Z,12.20
2022-11-02T04:04:55.376Z,12.21
2022-11-02T04:06:01.044Z,12.21
2022-11-02T04:07:06.683Z,12.20
2022-11-02T04:08:21.758Z,12.21
2022-11-02T04:09:28.550Z,12.21
2022-11-02T04:10:30.582Z,12.19
2022-11-02T04:11:51.050Z,12.20
2022-11-02T04:13:12.429Z,12.20
2022-11-02T04:14:32.669Z,12.19
2022-11-02T04:15:36.624Z,12.20
2022-11-02T04:16:40.521Z,12.20
2022-11-02T04:18:15.511Z,12.19
2022-11-02T04:19:30.554Z,12.19
2022-11-02T04:20:41.515Z,12.19
2022-11-02T04:22:05.084Z,12.20
2022-11-02T04:23:33.227Z,12.19
2022-11-02T04:24:54.515Z,12.18
2022-11-02T04:25:56.488Z,12.17
2022-11-02T04:27:15.458Z,12.17
2022-11-02T04:28:19.703Z,12.16
2022-11-02T04:29:33.378Z,12.13
2022-11-02T04:30:36.273Z,12.14
2022-11-02T04:31:38.287Z,12.13
2022-11-02T04:33:02.229Z,12.13
2022-11-02T04:34:08.798Z,12.14
2022-11-02T04:35:10.838Z,12.12
2022-11-02T04:36:15.282Z,12.11
2022-11-02T04:37:33.601Z,12.12
2022-11-02T04:38:41.197Z,12.09
2022-11-02T04:40:05.212Z,12.07
2022-11-02T04:41:26.050Z,12.05
2022-11-02T04:42:30.077Z,12.03
2022-11-02T04:43:34.501Z,12.02
2022-11-02T04:44:37.565Z,11.99
2022-11-02T04:45:44.777Z,12.00
2022-11-02T04:46:47.667Z,11.99
2022-11-02T04:47:51.539Z,11.98
2022-11-02T04:48:54.585Z,11.98
2022-11-02T04:49:57.438Z,11.97
2022-11-02T04:51:00.510Z,11.99
2022-11-02T04:52:02.642Z,11.98
2022-11-02T04:53:08.251Z,11.95
2022-11-02T04:54:11.038Z,11.98
2022-11-02T04:55:15.673Z,12.00
2022-11-02T04:56:18.266Z,11.85
2022-11-02T04:57:21.636Z,12.01
2022-11-02T04:58:23.600Z,12.01
2022-11-02T04:59:26.941Z,12.01
2022-11-02T05:00:29.352Z,12.01
2022-11-02T05:01:32.494Z,12.03
2022-11-02T05:02:36.289Z,12.02
2022-11-02T05:03:40.942Z,12.03
2022-11-02T05:04:43.115Z,12.01
2022-11-02T05:05:46.053Z,12.03
2022-11-02T05:06:48.633Z,12.02
2022-11-02T05:07:52.638Z,12.01
2022-11-02T05:08:55.313Z,12.02
2022-11-02T05:09:59.316Z,12.00
2022-11-02T05:11:01.299Z,12.03
2022-11-02T05:12:05.387Z,12.01
2022-11-02T05:13:10.600Z,12.02
2022-11-02T05:14:14.414Z,12.03
2022-11-02T05:15:16.612Z,12.04
2022-11-02T05:16:19.570Z,12.04
2022-11-02T05:17:23.943Z,12.04
2022-11-02T05:18:28.776Z,12.06
2022-11-02T05:19:32.420Z,12.06
2022-11-02T05:20:36.794Z,12.08
2022-11-02T05:21:38.777Z,12.08
2022-11-02T05:22:43.258Z,12.09
2022-11-02T05:23:45.423Z,12.10
2022-11-02T05:24:48.525Z,12.10
2022-11-02T05:25:54.911Z,12.09
2022-11-02T05:27:00.353Z,12.10
2022-11-02T05:28:02.488Z,12.09
2022-11-02T05:29:05.607Z,12.10
2022-11-02T05:30:10.162Z,12.10
2022-11-02T05:31:14.029Z,12.09
2022-11-02T05:32:16.066Z,12.09
2022-11-02T05:33:19.778Z,12.09
2022-11-02T05:34:22.033Z,12.08
2022-11-02T05:35:26.829Z,12.08
2022-11-02T05:36:29.803Z,12.07
2022-11-02T05:37:32.892Z,12.07
2022-11-02T05:38:35.073Z,12.07
2022-11-02T05:39:38.872Z,12.06
2022-11-02T05:40:41.685Z,12.07
2022-11-02T05:41:46.359Z,12.06
2022-11-02T05:42:48.944Z,12.05
2022-11-02T05:43:51.903Z,12.06
2022-11-02T05:44:55.764Z,12.06
2022-11-02T05:46:00.015Z,12.06
2022-11-02T05:47:02.322Z,12.06
2022-11-02T05:48:07.294Z,12.05
2022-11-02T05:49:09.211Z,12.04
2022-11-02T05:50:12.141Z,12.02
2022-11-02T05:51:15.439Z,12.00
2022-11-02T05:52:18.397Z,12.00
2022-11-02T05:53:20.346Z,11.98
2022-11-02T05:54:23.370Z,11.98
2022-11-02T05:55:25.395Z,11.94
2022-11-02T05:56:28.371Z,11.94
2022-11-02T05:57:30.254Z,11.93
2022-11-02T05:58:33.778Z,11.92
2022-11-02T05:59:35.764Z,11.90
2022-11-02T06:00:38.799Z,11.89
2022-11-02T06:01:40.846Z,11.90
2022-11-02T06:02:43.914Z,11.90
2022-11-02T06:03:52.105Z,11.91
2022-11-02T06:04:56.355Z,11.91
2022-11-02T06:05:59.129Z,11.92
2022-11-02T06:07:04.337Z,11.93
2022-11-02T06:08:06.384Z,11.89
2022-11-02T06:09:09.640Z,11.72
2022-11-02T06:10:11.539Z,11.95
2022-11-02T06:11:15.203Z,11.97
2022-11-02T06:12:17.212Z,11.98
2022-11-02T06:13:20.202Z,12.00
2022-11-02T06:14:22.109Z,12.01
2022-11-02T06:15:25.416Z,12.00
2022-11-02T06:16:27.361Z,12.03
2022-11-02T06:17:30.248Z,12.04
2022-11-02T06:18:32.284Z,12.06
2022-11-02T06:19:35.194Z,12.06
2022-11-02T06:20:37.156Z,12.06
2022-11-02T06:21:42.082Z,12.06
2022-11-02T06:22:48.275Z,12.06
2022-11-02T06:23:51.980Z,12.08
2022-11-02T06:24:53.885Z,12.09
2022-11-02T06:25:59.153Z,11.94
2022-11-02T06:27:01.059Z,12.09
2022-11-02T06:28:04.030Z,12.09
2022-11-02T06:29:08.065Z,12.05
2022-11-02T06:30:11.056Z,12.06
2022-11-02T06:31:17.201Z,12.05
2022-11-02T06:32:19.094Z,11.99
2022-11-02T06:33:22.554Z,12.01
2022-11-02T06:34:24.476Z,12.00
2022-11-02T06:35:27.465Z,11.99
2022-11-02T06:36:30.398Z,11.97
2022-11-02T06:37:34.823Z,11.97
2022-11-02T06:38:39.777Z,11.95
2022-11-02T06:39:41.760Z,11.92
2022-11-02T06:40:44.922Z,11.91
2022-11-02T06:41:46.825Z,11.89
2022-11-02T06:43:10.859Z,11.87
2022-11-02T06:44:12.659Z,11.85
2022-11-02T06:45:14.754Z,11.82
2022-11-02T06:46:17.777Z,11.80
2022-11-02T06:47:19.648Z,11.78
2022-11-02T06:48:22.583Z,11.77
2022-11-02T06:49:24.457Z,11.75
2022-11-02T06:50:27.347Z,11.74
2022-11-02T06:51:30.220Z,11.73
2022-11-02T06:52:32.215Z,11.74
2022-11-02T06:53:35.142Z,11.73
2022-11-02T06:54:38.398Z,11.71
2022-11-02T06:55:41.326Z,11.70
2022-11-02T06:56:43.350Z,11.69
2022-11-02T06:57:46.702Z,11.67
2022-11-02T06:58:49.745Z,11.66
2022-11-02T06:59:54.155Z,11.64
2022-11-02T07:01:01.610Z,11.61
2022-11-02T07:02:03.883Z,11.63
2022-11-02T07:03:08.940Z,11.63
2022-11-02T07:04:11.971Z,11.64
2022-11-02T07:05:14.397Z,11.64
2022-11-02T07:06:17.303Z,11.65
2022-11-02T07:07:19.213Z,11.66
2022-11-02T07:08:22.934Z,11.67
2022-11-02T07:09:24.806Z,11.68
2022-11-02T07:10:29.470Z,11.70
2022-11-02T07:11:33.175Z,11.72
2022-11-02T07:12:35.060Z,11.74
2022-11-02T07:13:38.003Z,11.75
2022-11-02T07:14:39.951Z,11.75
2022-11-02T07:15:43.070Z,11.77
2022-11-02T07:16:45.168Z,11.74
2022-11-02T07:17:48.128Z,11.79
2022-11-02T07:18:50.104Z,11.80
2022-11-02T07:19:52.972Z,11.78
2022-11-02T07:20:55.856Z,11.78
2022-11-02T07:21:59.097Z,11.79
2022-11-02T07:23:02.026Z,11.73
2022-11-02T07:24:05.528Z,11.77
2022-11-02T07:25:08.356Z,11.78
2022-11-02T07:26:12.638Z,11.77
2022-11-02T07:27:14.791Z,11.79
2022-11-02T07:28:17.735Z,11.79
2022-11-02T07:29:19.891Z,11.81
2022-11-02T07:30:23.307Z,11.82
2022-11-02T07:31:26.347Z,11.82
2022-11-02T07:32:28.276Z,11.83
2022-11-02T07:33:31.171Z,11.83
2022-11-02T07:34:33.102Z,11.82
2022-11-02T07:35:36.240Z,11.82
2022-11-02T07:36:38.283Z,11.82
2022-11-02T07:37:42.211Z,11.80
2022-11-02T07:38:45.162Z,11.82
2022-11-02T07:39:48.162Z,11.82
2022-11-02T07:40:50.735Z,11.83
2022-11-02T07:41:55.051Z,11.81
2022-11-02T07:43:00.697Z,11.82
2022-11-02T07:44:13.426Z,11.86
2022-11-02T07:45:31.506Z,11.88
2022-11-02T07:46:34.547Z,11.89
2022-11-02T07:47:41.888Z,11.87
2022-11-02T07:48:44.755Z,11.90
2022-11-02T07:49:47.649Z,11.91
2022-11-02T07:50:49.697Z,11.93
2022-11-02T07:51:52.590Z,11.96
2022-11-02T07:52:56.894Z,11.98
2022-11-02T07:54:00.976Z,11.99
2022-11-02T07:55:03.199Z,12.02
2022-11-02T07:56:07.672Z,12.05
2022-11-02T07:57:12.035Z,12.08
2022-11-02T07:58:14.117Z,12.11
2022-11-02T07:59:17.111Z,12.13
2022-11-02T08:00:19.379Z,12.15
2022-11-02T08:01:23.206Z,12.17
2022-11-02T08:02:26.335Z,12.19
2022-11-02T08:03:30.081Z,12.19
2022-11-02T08:04:33.288Z,12.20
2022-11-02T08:05:38.338Z,12.20
2022-11-02T08:06:41.335Z,12.21
2022-11-02T08:07:43.505Z,12.22
2022-11-02T08:08:46.429Z,12.24
2022-11-02T08:09:48.392Z,12.25
2022-11-02T08:10:53.056Z,12.28
2022-11-02T08:11:57.045Z,12.29
2022-11-02T08:13:01.460Z,12.30
2022-11-02T08:14:04.413Z,12.33
2022-11-02T08:15:07.836Z,12.33
2022-11-02T08:16:10.865Z,12.36
2022-11-02T08:17:12.758Z,12.38
2022-11-02T08:18:17.136Z,12.39
2022-11-02T08:19:20.053Z,12.42
2022-11-02T08:20:22.888Z,12.44
2022-11-02T08:21:25.814Z,12.46
2022-11-02T08:22:27.815Z,12.50
2022-11-02T08:23:30.781Z,12.51
2022-11-02T08:24:32.698Z,12.54
2022-11-02T08:25:36.070Z,12.56
2022-11-02T08:26:39.824Z,12.59
2022-11-02T08:27:45.297Z,12.61
2022-11-02T08:28:49.600Z,12.64
2022-11-02T08:29:52.814Z,12.67
2022-11-02T08:30:56.228Z,12.70
2022-11-02T08:31:58.187Z,12.71
2022-11-02T08:33:04.869Z,12.74
2022-11-02T08:34:06.742Z,12.76
2022-11-02T08:35:09.909Z,12.76
2022-11-02T08:36:13.405Z,12.77
2022-11-02T08:37:15.384Z,12.78
2022-11-02T08:38:22.351Z,12.79
2022-11-02T08:39:24.310Z,12.81
2022-11-02T08:40:27.740Z,12.82
2022-11-02T08:41:29.713Z,12.83
2022-11-02T08:42:32.558Z,12.84
2022-11-02T08:43:35.483Z,12.88
2022-11-02T08:44:42.555Z,12.86
2022-11-02T08:47:09.495Z,12.98
2022-11-02T08:48:12.145Z,13.00
2022-11-02T08:49:18.512Z,13.02
2022-11-02T08:50:20.676Z,13.04
2022-11-02T08:51:23.559Z,13.07
2022-11-02T08:52:25.464Z,13.09
2022-11-02T08:53:28.384Z,13.12
2022-11-02T08:54:30.278Z,13.14
2022-11-02T08:55:33.773Z,13.16
2022-11-02T08:56:35.668Z,13.20
2022-11-02T08:57:45.983Z,13.22
2022-11-02T08:58:47.880Z,13.25
2022-11-02T08:59:52.089Z,13.26
2022-11-02T09:00:55.588Z,13.29
2022-11-02T09:01:58.637Z,13.30
2022-11-02T09:03:02.730Z,13.30
2022-11-02T09:04:05.864Z,13.31
2022-11-02T09:05:08.703Z,13.32
2022-11-02T09:06:11.569Z,13.31
2022-11-02T09:07:14.489Z,13.32
2022-11-02T09:08:18.939Z,13.33
2022-11-02T09:09:22.063Z,13.33
2022-11-02T09:10:23.922Z,13.31
2022-11-02T09:11:26.782Z,13.31
2022-11-02T09:12:28.695Z,13.32
2022-11-02T09:13:31.724Z,13.30
2022-11-02T09:14:35.593Z,13.31
2022-11-02T09:15:40.325Z,13.33
2022-11-02T09:16:43.507Z,13.34
2022-11-02T09:17:47.091Z,13.35
2022-11-02T09:18:49.970Z,13.35
2022-11-02T09:19:51.821Z,13.34
2022-11-02T09:20:54.923Z,13.35
2022-11-02T09:21:57.798Z,13.36
2022-11-02T09:23:00.032Z,13.36
2022-11-02T09:24:03.034Z,13.39
2022-11-02T09:25:05.548Z,13.40
2022-11-02T09:26:08.467Z,13.43
2022-11-02T09:27:10.392Z,13.46
2022-11-02T09:28:15.067Z,13.47
2022-11-02T09:29:18.231Z,13.48
2022-11-02T09:30:20.888Z,13.49
2022-11-02T09:31:25.169Z,13.49
2022-11-02T09:32:27.291Z,13.50
2022-11-02T09:33:30.228Z,13.51
2022-11-02T09:34:32.184Z,13.51
2022-11-02T09:35:36.993Z,13.50
2022-11-02T09:36:40.063Z,13.51
2022-11-02T09:37:49.917Z,13.50
2022-11-02T09:38:54.099Z,13.51
2022-11-02T09:39:56.186Z,13.49
2022-11-02T09:41:07.600Z,13.48
2022-11-02T09:42:19.465Z,13.50
2022-11-02T09:43:36.084Z,13.48
2022-11-02T09:44:49.901Z,13.47
2022-11-02T09:45:59.469Z,13.45
2022-11-02T09:48:30.749Z,13.44
2022-11-02T09:49:33.098Z,13.42
2022-11-02T09:50:45.142Z,13.39
2022-11-02T09:51:50.965Z,13.38
2022-11-02T09:52:59.369Z,13.36
2022-11-02T09:54:13.182Z,13.33
2022-11-02T09:55:26.247Z,13.31
2022-11-02T09:56:31.238Z,13.30
2022-11-02T09:57:33.949Z,13.26
2022-11-02T09:58:39.943Z,13.26
2022-11-02T09:59:43.153Z,13.23
2022-11-02T10:00:49.214Z,13.21
2022-11-02T10:02:01.046Z,13.18
2022-11-02T10:03:20.832Z,13.13
2022-11-02T10:05:05.361Z,13.09
2022-11-02T10:06:14.063Z,13.06
2022-11-02T10:07:25.986Z,13.02
2022-11-02T10:08:43.711Z,12.97
2022-11-02T10:09:53.960Z,12.93
2022-11-02T10:11:08.368Z,12.88
2022-11-02T10:12:22.111Z,12.84
2022-11-02T10:13:37.814Z,12.77
2022-11-02T10:14:47.486Z,12.72
2022-11-02T10:15:54.008Z,12.63
2022-11-02T10:17:02.635Z,12.59
2022-11-02T10:18:14.535Z,12.52
2022-11-02T10:19:21.673Z,12.45
2022-11-02T10:20:28.680Z,12.36
2022-11-02T10:21:33.919Z,12.30
2022-11-02T10:22:41.978Z,12.23
2022-11-02T10:23:52.162Z,12.18
2022-11-02T10:24:58.195Z,12.15
2022-11-02T10:26:02.697Z,12.11
2022-11-02T10:27:14.322Z,12.08
2022-11-02T10:28:20.412Z,12.03
2022-11-02T10:29:35.111Z,11.99
2022-11-02T10:30:39.281Z,11.96
2022-11-02T10:31:41.234Z,11.94
2022-11-02T10:32:46.000Z,11.92
2022-11-02T10:33:52.797Z,11.92
2022-11-02T10:35:17.471Z,11.94
2022-11-02T10:36:38.330Z,11.96
2022-11-02T10:37:53.422Z,11.99
2022-11-02T10:39:09.348Z,12.02
2022-11-02T10:40:22.825Z,12.05
2022-11-02T10:41:42.644Z,12.14
2022-11-02T10:43:05.177Z,12.22
2022-11-02T10:44:26.143Z,12.33
2022-11-02T10:45:42.380Z,12.43
2022-11-02T10:46:58.798Z,12.53
2022-11-02T10:48:08.679Z,12.62
2022-11-02T10:49:21.791Z,12.70
2022-11-02T10:50:41.751Z,12.77
2022-11-02T10:51:43.870Z,12.81
2022-11-02T10:52:47.867Z,12.86
2022-11-02T10:53:52.883Z,12.92
2022-11-02T10:54:55.716Z,12.97
2022-11-02T10:56:02.369Z,13.03
2022-11-02T10:57:12.843Z,13.07
2022-11-02T10:58:20.577Z,13.13
2022-11-02T10:59:24.052Z,13.16
2022-11-02T11:00:29.196Z,13.19
2022-11-02T11:01:33.041Z,13.21
2022-11-02T11:02:34.953Z,13.23
2022-11-02T11:03:54.830Z,13.24
2022-11-02T11:05:13.190Z,13.23
2022-11-02T11:06:16.909Z,13.23
2022-11-02T11:07:28.261Z,13.22
2022-11-02T11:08:35.790Z,13.21
2022-11-02T11:09:47.255Z,13.20
2022-11-02T11:10:49.176Z,13.22
2022-11-02T11:11:55.066Z,13.24
2022-11-02T11:12:57.123Z,13.27
2022-11-02T11:15:47.160Z,13.37
2022-11-02T11:16:52.732Z,13.42
2022-11-02T11:19:41.499Z,13.49
2022-11-02T11:20:46.087Z,13.48
2022-11-02T11:21:49.904Z,13.45
2022-11-02T11:23:09.443Z,13.41
2022-11-02T11:24:21.242Z,13.36
2022-11-02T11:25:27.969Z,13.35
2022-11-02T11:26:31.802Z,13.30
2022-11-02T11:27:45.908Z,13.28
2022-11-02T11:28:55.407Z,13.25
2022-11-02T11:29:59.864Z,13.24
2022-11-02T11:31:13.324Z,13.22
2022-11-02T11:32:18.878Z,13.21
2022-11-02T11:33:22.850Z,13.20
2022-11-02T11:34:28.084Z,13.18
2022-11-02T11:35:34.381Z,13.16
2022-11-02T11:36:38.650Z,13.14
2022-11-02T11:37:49.819Z,13.13
2022-11-02T11:38:55.467Z,13.11
2022-11-02T11:40:00.895Z,13.11
2022-11-02T11:41:05.110Z,13.08
2022-11-02T11:42:16.639Z,13.07
2022-11-02T11:43:19.638Z,13.06
2022-11-02T11:44:23.363Z,13.03
2022-11-02T11:45:27.878Z,13.03
2022-11-02T11:46:41.241Z,13.02
2022-11-02T11:47:44.310Z,13.00
2022-11-02T11:48:50.114Z,12.95
2022-11-02T11:50:11.200Z,12.91
2022-11-02T11:51:27.667Z,12.84
2022-11-02T11:52:33.733Z,12.78
2022-11-02T11:53:35.634Z,12.76
2022-11-02T11:54:39.327Z,12.74
2022-11-02T11:55:48.321Z,12.73
2022-11-02T11:56:53.095Z,12.74
2022-11-02T11:58:08.723Z,12.74
2022-11-02T11:59:20.496Z,12.75
2022-11-02T12:00:28.786Z,12.76
2022-11-02T12:01:40.957Z,12.77
2022-11-02T12:02:44.872Z,12.78
2022-11-02T12:03:51.720Z,12.80
2022-11-02T12:05:01.397Z,12.82
2022-11-02T12:06:16.198Z,12.86
2022-11-02T12:07:36.683Z,12.87
2022-11-02T12:08:52.266Z,12.88
2022-11-02T12:10:06.029Z,12.88
2022-11-02T12:11:32.565Z,12.84
2022-11-02T12:12:45.958Z,12.81
2022-11-02T12:14:07.751Z,12.74
2022-11-02T12:15:28.163Z,12.71
2022-11-02T12:16:42.383Z,12.65
2022-11-02T12:17:56.914Z,12.62
2022-11-02T12:19:13.703Z,12.62
2022-11-02T12:20:43.080Z,12.64
2022-11-02T12:22:02.322Z,12.62
2022-11-02T12:23:21.448Z,12.65
2022-11-02T12:25:00.641Z,12.68
2022-11-02T12:26:23.109Z,12.71
2022-11-02T12:27:31.923Z,12.75
2022-11-02T12:28:46.271Z,12.79
2022-11-02T12:30:01.649Z,12.84
2022-11-02T12:31:17.186Z,12.88
2022-11-02T12:32:35.118Z,12.91
2022-11-02T12:33:52.399Z,12.96
2022-11-02T12:35:29.354Z,13.00
2022-11-02T12:37:18.040Z,13.05
2022-11-02T12:38:25.464Z,13.13
2022-11-02T12:39:40.974Z,13.17
2022-11-02T12:40:55.041Z,13.22
2022-11-02T12:42:12.712Z,13.25
2022-11-02T12:43:31.901Z,13.30
2022-11-02T12:44:48.360Z,13.33
2022-11-02T12:45:55.594Z,13.38
2022-11-02T12:47:07.091Z,13.43
2022-11-02T12:48:15.649Z,13.48
2022-11-02T12:49:35.573Z,13.53
2022-11-02T12:50:54.399Z,13.60
2022-11-02T12:52:06.214Z,13.68
2022-11-02T12:53:29.282Z,13.77
2022-11-02T12:54:41.793Z,13.91
2022-11-02T12:55:49.318Z,14.04
2022-11-02T12:56:54.425Z,14.17
2022-11-02T12:58:01.360Z,14.29
2022-11-02T12:59:04.465Z,14.39
2022-11-02T13:00:16.856Z,14.48
2022-11-02T13:01:25.824Z,14.56
2022-11-02T13:02:34.348Z,14.61
2022-11-02T13:03:43.730Z,14.62
2022-11-02T13:04:51.440Z,14.60
2022-11-02T13:06:02.253Z,14.54
2022-11-02T13:07:06.267Z,14.53
2022-11-02T13:08:15.911Z,14.47
2022-11-02T13:09:26.527Z,14.39
2022-11-02T13:10:33.937Z,14.29
2022-11-02T13:11:40.089Z,14.18
2022-11-02T13:12:44.507Z,14.09
2022-11-02T13:13:51.326Z,14.03
2022-11-02T13:14:56.715Z,13.93
2022-11-02T13:16:00.572Z,13.85
2022-11-02T13:17:11.602Z,13.76
2022-11-02T13:18:19.223Z,13.74
2022-11-02T13:19:29.996Z,13.68
2022-11-02T13:20:36.993Z,13.65
2022-11-02T13:21:44.692Z,13.61
2022-11-02T13:22:55.415Z,13.57
2022-11-02T13:23:59.310Z,13.55
2022-11-02T13:25:14.427Z,13.53
2022-11-02T13:26:27.476Z,13.49
2022-11-02T13:27:36.533Z,13.47
2022-11-02T13:28:44.278Z,13.45
2022-11-02T13:29:50.781Z,13.45
2022-11-02T13:30:54.609Z,13.44
2022-11-02T13:32:01.270Z,13.42
2022-11-02T13:33:09.764Z,13.40
2022-11-02T13:34:16.368Z,13.37
2022-11-02T13:35:23.592Z,13.36
2022-11-02T13:36:25.774Z,13.35
2022-11-02T13:37:34.513Z,13.30
2022-11-02T13:38:41.850Z,13.30
2022-11-02T13:39:48.439Z,13.29
2022-11-02T13:41:06.153Z,13.24
2022-11-02T13:42:24.495Z,13.25
2022-11-02T13:43:55.543Z,13.21
2022-11-02T13:45:24.807Z,13.19
2022-11-02T13:46:53.412Z,13.18
2022-11-02T13:48:42.906Z,13.17
2022-11-02T13:49:54.791Z,13.18
2022-11-02T13:51:16.365Z,13.20
2022-11-02T13:52:31.961Z,13.27
2022-11-02T13:53:55.986Z,13.34
2022-11-02T13:55:17.725Z,13.40
2022-11-02T13:56:32.008Z,13.45
2022-11-02T13:57:47.947Z,13.47
2022-11-02T13:59:06.091Z,13.52
2022-11-02T14:00:37.021Z,13.59
2022-11-02T14:01:50.292Z,13.68
2022-11-02T14:03:10.657Z,13.75
2022-11-02T14:04:17.383Z,13.85
2022-11-02T14:05:30.512Z,13.95
2022-11-02T14:06:56.548Z,13.98
2022-11-02T14:08:07.485Z,14.01
2022-11-02T14:09:35.544Z,14.01
2022-11-02T14:10:43.538Z,13.99
2022-11-02T14:11:50.391Z,13.99
2022-11-02T14:12:53.382Z,13.95
2022-11-02T14:14:18.306Z,13.93
2022-11-02T14:15:45.258Z,13.90
2022-11-02T14:17:12.663Z,13.88
2022-11-02T14:18:28.683Z,13.88
2022-11-02T14:19:33.419Z,13.88
2022-11-02T14:20:38.599Z,13.89
2022-11-02T14:21:42.859Z,13.88
2022-11-02T14:23:30.918Z,13.85
2022-11-02T14:25:10.357Z,13.83
2022-11-02T14:26:33.998Z,13.79
2022-11-02T14:27:38.322Z,13.75
2022-11-02T14:28:42.911Z,13.72
2022-11-02T14:29:52.325Z,13.69
2022-11-02T14:31:02.147Z,13.66
2022-11-02T14:32:12.137Z,13.61
2022-11-02T14:33:58.374Z,13.59
2022-11-02T14:35:15.286Z,13.59
2022-11-02T14:36:40.526Z,13.59